Time;durP1;ratioP1;P1;durP2;ratioP2;P2;SDS_P1;SDS_P2;PMS_P1;PMS_P2;Temp;Humidity;BMP_temperature;BMP_pressure;BME280_temperature;BME280_humidity;BME280_pressure;Samples;Min_cycle;Max_cycle;Signal;HPM_P1;HPM_P2
2021/07/14 00:00:13;;;;;;;12.82;7.90;;;;;;;;;;5099552;28;20039;-82
2021/07/14 00:02:40;;;;;;;10.13;8.10;;;;;;;;;;5099245;28;20024;-83
2021/07/14 00:05:13;;;;;;;10.00;7.53;;;;;;;;;;5099232;28;20020;-83
2021/07/14 00:07:39;;;;;;;12.82;8.57;;;;;;;;;;5098996;28;20024;-82
2021/07/14 00:10:08;;;;;;;9.85;8.00;;;;;;;;;;5099266;28;20024;-82
2021/07/14 00:12:43;;;;;;;10.63;7.97;;;;;;;;;;5097766;28;20321;-82
2021/07/14 00:23:29;;;;;;;11.10;7.82;;;;;;;;;;5077064;28;20070;-83
2021/07/14 00:25:55;;;;;;;9.18;7.57;;;;;;;;;;5076733;28;20025;-83
2021/07/14 00:28:21;;;;;;;8.60;7.70;;;;;;;;;;5076730;28;20055;-83
2021/07/14 00:31:13;;;;;;;13.15;7.93;;;;;;;;;;5076463;28;20469;-82
2021/07/14 00:33:36;;;;;;;13.35;7.78;;;;;;;;;;5076055;28;20039;-83
2021/07/14 00:36:02;;;;;;;12.18;7.88;;;;;;;;;;5076387;28;20021;-82
2021/07/14 00:38:28;;;;;;;9.40;7.78;;;;;;;;;;5059609;28;20307;-82
2021/07/14 00:40:54;;;;;;;8.45;7.63;;;;;;;;;;5076253;28;20055;-82
2021/07/14 00:43:20;;;;;;;13.68;7.35;;;;;;;;;;5076287;28;20047;-82
2021/07/14 00:45:46;;;;;;;10.02;7.55;;;;;;;;;;5076340;28;20027;-83
2021/07/14 00:48:14;;;;;;;9.88;7.13;;;;;;;;;;5076235;28;20032;-82
2021/07/14 00:50:40;;;;;;;9.38;7.53;;;;;;;;;;5059475;28;20033;-82
2021/07/14 00:53:06;;;;;;;16.20;8.40;;;;;;;;;;5082012;28;20483;-83
2021/07/14 00:55:33;;;;;;;11.45;7.97;;;;;;;;;;5098324;28;20060;-83
2021/07/14 00:57:59;;;;;;;10.65;7.20;;;;;;;;;;5098319;28;20476;-82
2021/07/14 01:00:25;;;;;;;13.40;7.53;;;;;;;;;;5098080;28;20364;-82
2021/07/14 01:02:51;;;;;;;8.32;7.53;;;;;;;;;;5096862;28;20318;-82
2021/07/14 01:05:22;;;;;;;9.70;7.28;;;;;;;;;;5098229;28;20099;-83
2021/07/14 01:08:04;;;;;;;8.68;7.18;;;;;;;;;;5098164;28;20063;-83
2021/07/14 01:10:31;;;;;;;9.68;7.57;;;;;;;;;;5097188;28;20028;-83
2021/07/14 01:13:03;;;;;;;10.27;7.68;;;;;;;;;;5096019;28;20036;-82
2021/07/14 01:15:37;;;;;;;10.43;6.75;;;;;;;;;;5097760;28;20031;-82
2021/07/14 01:18:16;;;;;;;10.73;7.05;;;;;;;;;;5097811;28;20111;-82
2021/07/14 01:20:55;;;;;;;9.40;7.10;;;;;;;;;;5097780;28;20048;-82
2021/07/14 01:23:31;;;;;;;11.20;7.20;;;;;;;;;;5096588;28;20024;-82
2021/07/14 01:26:24;;;;;;;10.30;7.00;;;;;;;;;;5097657;28;20031;-82
2021/07/14 01:28:52;;;;;;;11.70;7.22;;;;;;;;;;5055449;28;20033;-82
2021/07/14 01:31:19;;;;;;;12.23;6.60;;;;;;;;;;5038983;28;20374;-82
2021/07/14 01:33:46;;;;;;;11.45;7.28;;;;;;;;;;5038616;28;20037;-82
2021/07/14 01:36:15;;;;;;;15.40;7.03;;;;;;;;;;5055414;28;20303;-82
2021/07/14 01:38:43;;;;;;;7.65;6.65;;;;;;;;;;5054737;28;20060;-82
2021/07/14 01:41:09;;;;;;;9.30;6.45;;;;;;;;;;5055412;28;20041;-82
2021/07/14 01:43:38;;;;;;;8.90;6.70;;;;;;;;;;5038491;28;20083;-82
2021/07/14 01:46:06;;;;;;;12.23;7.00;;;;;;;;;;5055312;28;20034;-83
2021/07/14 01:48:34;;;;;;;13.73;7.32;;;;;;;;;;5055355;28;20032;-82
2021/07/14 01:51:00;;;;;;;10.07;7.05;;;;;;;;;;5055319;28;20028;-82
2021/07/14 01:53:27;;;;;;;11.20;7.70;;;;;;;;;;5055004;28;20033;-82
2021/07/14 01:55:54;;;;;;;11.60;7.07;;;;;;;;;;5055142;28;20362;-82
2021/07/14 01:58:21;;;;;;;11.27;6.95;;;;;;;;;;5054994;28;20061;-82
2021/07/14 02:00:51;;;;;;;8.30;6.75;;;;;;;;;;5055118;28;20116;-82
2021/07/14 02:05:59;;;;;;;;;;;;;;;;;;5083566;28;20213;-83
2021/07/14 02:08:25;;;;;;;8.88;6.88;;;;;;;;;;5097230;28;19911;-82
2021/07/14 02:10:52;;;;;;;10.30;7.32;;;;;;;;;;5097128;28;20382;-82
2021/07/14 02:13:19;;;;;;;10.45;7.65;;;;;;;;;;5097032;28;20078;-83
2021/07/14 02:15:45;;;;;;;10.65;7.00;;;;;;;;;;5097074;28;20291;-82
2021/07/14 02:18:13;;;;;;;9.55;6.43;;;;;;;;;;5097124;28;20035;-82
2021/07/14 02:20:40;;;;;;;12.18;6.93;;;;;;;;;;5096899;28;20020;-82
2021/07/14 02:23:07;;;;;;;11.18;6.53;;;;;;;;;;5097116;28;20345;-81
2021/07/14 02:25:33;;;;;;;13.60;7.20;;;;;;;;;;5099177;28;20028;-82
2021/07/14 02:28:00;;;;;;;7.90;6.55;;;;;;;;;;5101204;28;20042;-82
2021/07/14 02:30:26;;;;;;;9.57;6.40;;;;;;;;;;5100138;28;20314;-82
2021/07/14 02:32:58;;;;;;;10.55;6.90;;;;;;;;;;5100982;28;20417;-82
2021/07/14 02:35:24;;;;;;;12.60;7.00;;;;;;;;;;5100844;28;20039;-82
2021/07/14 02:37:54;;;;;;;10.90;6.53;;;;;;;;;;5100853;28;20489;-82
2021/07/14 02:40:24;;;;;;;10.57;6.43;;;;;;;;;;5099778;28;20031;-82
2021/07/14 02:42:52;;;;;;;13.00;7.88;;;;;;;;;;5100731;28;20025;-82
2021/07/14 02:45:18;;;;;;;8.10;6.85;;;;;;;;;;5100760;28;20020;-82
2021/07/14 02:47:44;;;;;;;14.00;6.85;;;;;;;;;;5100810;28;20012;-82
2021/07/14 02:50:15;;;;;;;11.02;7.20;;;;;;;;;;5100597;28;20020;-82
2021/07/14 02:52:41;;;;;;;9.85;7.40;;;;;;;;;;5100681;28;20054;-82
2021/07/14 02:55:08;;;;;;;8.20;6.28;;;;;;;;;;5100533;28;20101;-82
2021/07/14 02:57:38;;;;;;;11.00;6.55;;;;;;;;;;5100485;28;20031;-82
2021/07/14 03:00:05;;;;;;;10.00;6.80;;;;;;;;;;5100456;28;20055;-82
2021/07/14 03:02:32;;;;;;;11.30;7.03;;;;;;;;;;5100320;28;20059;-82
2021/07/14 03:04:58;;;;;;;9.60;7.18;;;;;;;;;;5100536;28;20046;-83
2021/07/14 03:07:26;;;;;;;11.38;6.75;;;;;;;;;;5100415;28;20024;-82
2021/07/14 03:09:52;;;;;;;11.70;7.07;;;;;;;;;;5100480;28;20023;-82
2021/07/14 03:12:20;;;;;;;10.63;6.72;;;;;;;;;;5100142;28;20436;-82
2021/07/14 03:14:48;;;;;;;7.90;7.10;;;;;;;;;;5099966;28;20051;-81
2021/07/14 03:17:15;;;;;;;11.55;6.43;;;;;;;;;;5100095;28;20056;-82
2021/07/14 03:19:41;;;;;;;9.73;6.57;;;;;;;;;;5100590;28;20043;-82
2021/07/14 03:22:08;;;;;;;11.48;6.53;;;;;;;;;;5100193;28;20023;-82
2021/07/14 03:24:34;;;;;;;10.80;7.07;;;;;;;;;;5099994;28;20024;-82
2021/07/14 03:27:01;;;;;;;16.38;7.10;;;;;;;;;;5100232;28;20036;-82
2021/07/14 03:29:28;;;;;;;10.00;7.10;;;;;;;;;;5100055;28;20016;-82
2021/07/14 03:31:55;;;;;;;9.98;6.43;;;;;;;;;;5098745;28;20027;-81
2021/07/14 03:34:21;;;;;;;7.45;6.13;;;;;;;;;;5100039;28;20314;-82
2021/07/14 03:36:48;;;;;;;9.00;6.38;;;;;;;;;;5099414;28;20313;-82
2021/07/14 03:39:16;;;;;;;13.88;6.60;;;;;;;;;;5099709;28;20417;-82
2021/07/14 03:41:42;;;;;;;10.38;6.38;;;;;;;;;;5099620;28;20024;-82
2021/07/14 03:44:09;;;;;;;11.85;6.78;;;;;;;;;;5099510;28;20032;-82
2021/07/14 03:46:36;;;;;;;9.75;7.10;;;;;;;;;;5099516;28;20019;-82
2021/07/14 03:49:02;;;;;;;12.10;6.47;;;;;;;;;;5099668;28;20030;-82
2021/07/14 03:51:30;;;;;;;9.05;6.40;;;;;;;;;;5099670;28;20043;-82
2021/07/14 03:53:56;;;;;;;10.02;6.80;;;;;;;;;;5099703;28;20030;-83
2021/07/14 03:56:24;;;;;;;12.98;6.50;;;;;;;;;;5099478;28;20046;-83
2021/07/14 03:58:50;;;;;;;14.70;6.60;;;;;;;;;;5098409;28;20059;-82
2021/07/14 04:01:19;;;;;;;10.23;7.05;;;;;;;;;;5099329;28;20032;-83
2021/07/14 04:03:46;;;;;;;11.85;6.47;;;;;;;;;;5099112;28;20055;-82
2021/07/14 04:06:15;;;;;;;13.85;6.07;;;;;;;;;;5099458;28;20032;-83
2021/07/14 04:08:43;;;;;;;9.30;6.57;;;;;;;;;;5099247;28;20027;-82
2021/07/14 04:11:11;;;;;;;12.98;6.43;;;;;;;;;;5097959;28;20024;-84
2021/07/14 04:13:37;;;;;;;9.10;6.25;;;;;;;;;;5098973;28;20452;-81
2021/07/14 04:16:03;;;;;;;14.05;6.68;;;;;;;;;;5099040;28;20028;-82
2021/07/14 04:18:30;;;;;;;10.95;5.85;;;;;;;;;;5099160;28;20024;-83
2021/07/14 04:20:56;;;;;;;10.20;6.15;;;;;;;;;;5099125;28;20020;-82
2021/07/14 04:23:22;;;;;;;9.70;5.93;;;;;;;;;;5098727;28;20428;-83
2021/07/14 04:25:48;;;;;;;10.40;6.25;;;;;;;;;;5098014;28;20057;-83
2021/07/14 04:28:14;;;;;;;12.25;5.95;;;;;;;;;;5098749;28;20394;-81
2021/07/14 04:30:40;;;;;;;10.63;6.40;;;;;;;;;;5098475;28;20421;-81
2021/07/14 04:33:06;;;;;;;10.63;7.22;;;;;;;;;;5098581;28;20012;-82
2021/07/14 04:35:33;;;;;;;11.25;8.52;;;;;;;;;;5097728;28;20342;-82
2021/07/14 04:37:59;;;;;;;14.82;10.25;;;;;;;;;;5098483;28;20055;-83
2021/07/14 04:40:25;;;;;;;11.95;8.15;;;;;;;;;;5097772;28;20039;-81
2021/07/14 04:42:52;;;;;;;13.65;11.13;;;;;;;;;;5098470;28;20126;-82
2021/07/14 04:45:18;;;;;;;10.73;6.53;;;;;;;;;;5098330;28;20057;-81
2021/07/14 04:47:45;;;;;;;8.23;6.32;;;;;;;;;;5097514;28;20024;-82
2021/07/14 04:50:11;;;;;;;11.93;6.45;;;;;;;;;;5098339;28;20048;-82
2021/07/14 04:52:37;;;;;;;12.60;6.82;;;;;;;;;;5098370;28;20023;-80
2021/07/14 04:55:03;;;;;;;12.38;7.05;;;;;;;;;;5098436;28;20364;-83
2021/07/14 04:57:30;;;;;;;12.00;6.80;;;;;;;;;;5098208;28;20115;-82
2021/07/14 04:59:56;;;;;;;10.85;6.43;;;;;;;;;;5098101;28;20028;-82
2021/07/14 05:02:22;;;;;;;11.55;7.20;;;;;;;;;;5097989;28;20020;-78
2021/07/14 05:04:48;;;;;;;13.05;6.30;;;;;;;;;;5098125;28;20032;-76
2021/07/14 05:07:14;;;;;;;11.05;6.80;;;;;;;;;;5098278;28;20024;-76
2021/07/14 05:09:40;;;;;;;14.45;7.15;;;;;;;;;;5098165;28;20051;-76
2021/07/14 05:12:06;;;;;;;11.88;6.68;;;;;;;;;;5096592;28;20024;-76
2021/07/14 05:14:32;;;;;;;15.63;9.20;;;;;;;;;;5097523;28;20098;-76
2021/07/14 05:16:58;;;;;;;13.75;7.93;;;;;;;;;;5097815;28;20024;-76
2021/07/14 05:19:24;;;;;;;12.02;8.52;;;;;;;;;;5097852;28;20028;-75
2021/07/14 05:21:50;;;;;;;15.10;8.93;;;;;;;;;;5097769;28;20020;-75
2021/07/14 05:24:17;;;;;;;13.57;10.20;;;;;;;;;;5096559;28;20020;-76
2021/07/14 05:26:43;;;;;;;13.18;10.30;;;;;;;;;;5097902;28;20054;-76
2021/07/14 05:29:09;;;;;;;15.85;10.35;;;;;;;;;;5096638;28;20170;-76
2021/07/14 05:31:35;;;;;;;15.25;8.38;;;;;;;;;;5097557;28;20026;-76
2021/07/14 05:34:01;;;;;;;16.70;7.72;;;;;;;;;;5097417;28;20410;-76
2021/07/14 05:36:27;;;;;;;15.00;7.70;;;;;;;;;;5097507;28;20040;-76
2021/07/14 05:38:57;;;;;;;17.75;8.02;;;;;;;;;;5097421;28;20116;-75
2021/07/14 05:41:23;;;;;;;22.20;10.93;;;;;;;;;;5097498;28;20066;-75
2021/07/14 05:43:49;;;;;;;24.08;10.07;;;;;;;;;;5097660;28;20035;-74
2021/07/14 05:46:15;;;;;;;22.58;9.27;;;;;;;;;;5097544;28;20431;-74
2021/07/14 05:48:42;;;;;;;16.38;9.20;;;;;;;;;;5097205;28;20028;-80
2021/07/14 05:51:08;;;;;;;22.00;8.00;;;;;;;;;;5097722;28;20016;-86
2021/07/14 05:53:34;;;;;;;23.65;8.60;;;;;;;;;;5096911;28;20074;-85
2021/07/14 05:56:00;;;;;;;16.08;7.47;;;;;;;;;;5096479;28;20044;-80
2021/07/14 05:58:26;;;;;;;17.30;7.38;;;;;;;;;;5097202;28;20065;-80
2021/07/14 06:00:52;;;;;;;11.90;7.70;;;;;;;;;;5097301;28;20031;-80
2021/07/14 06:03:18;;;;;;;18.80;7.88;;;;;;;;;;5097238;28;20115;-80
2021/07/14 06:05:44;;;;;;;17.42;8.48;;;;;;;;;;5097000;28;20310;-81
2021/07/14 06:08:10;;;;;;;15.65;9.02;;;;;;;;;;5096992;28;20101;-80
2021/07/14 06:10:36;;;;;;;22.67;12.32;;;;;;;;;;5097297;28;20024;-80
2021/07/14 06:13:02;;;;;;;32.00;11.88;;;;;;;;;;5096929;28;20038;-81
2021/07/14 06:15:28;;;;;;;23.73;13.55;;;;;;;;;;5095822;28;20341;-80
2021/07/14 06:17:55;;;;;;;20.58;10.32;;;;;;;;;;5097001;28;20028;-80
2021/07/14 06:20:21;;;;;;;26.10;9.98;;;;;;;;;;5096921;28;20030;-80
2021/07/14 06:22:47;;;;;;;27.08;9.52;;;;;;;;;;5097093;28;20028;-80
2021/07/14 06:25:14;;;;;;;21.33;8.73;;;;;;;;;;5097049;28;20086;-80
2021/07/14 06:27:41;;;;;;;27.00;9.25;;;;;;;;;;5096860;28;20392;-80
2021/07/14 06:30:09;;;;;;;28.85;10.02;;;;;;;;;;5097081;28;20034;-80
2021/07/14 06:32:39;;;;;;;12.40;7.97;;;;;;;;;;5096075;28;20032;-80
2021/07/14 06:35:06;;;;;;;15.23;7.70;;;;;;;;;;5096964;28;20021;-80
2021/07/14 06:37:33;;;;;;;21.50;8.63;;;;;;;;;;5095851;28;20028;-80
2021/07/14 06:39:59;;;;;;;25.55;8.77;;;;;;;;;;5096920;28;20028;-80
2021/07/14 06:42:25;;;;;;;17.33;8.02;;;;;;;;;;5096768;28;20028;-80
2021/07/14 06:44:51;;;;;;;11.60;7.80;;;;;;;;;;5095628;28;20036;-80
2021/07/14 06:47:17;;;;;;;27.48;9.27;;;;;;;;;;5096700;28;20394;-80
2021/07/14 06:49:44;;;;;;;16.00;7.80;;;;;;;;;;5096455;28;20036;-80
2021/07/14 06:52:10;;;;;;;15.10;8.40;;;;;;;;;;5096773;28;20024;-80
2021/07/14 06:54:38;;;;;;;18.05;8.02;;;;;;;;;;5095962;28;20036;-80
2021/07/14 06:57:05;;;;;;;17.50;7.65;;;;;;;;;;5096740;28;20493;-80
2021/07/14 06:59:31;;;;;;;21.75;8.13;;;;;;;;;;5095597;28;20059;-80
2021/07/14 07:02:01;;;;;;;18.73;7.95;;;;;;;;;;5096766;28;20103;-80
2021/07/14 07:04:27;;;;;;;13.17;7.70;;;;;;;;;;5096731;28;20032;-80
2021/07/14 07:06:53;;;;;;;14.82;8.40;;;;;;;;;;5096619;28;20460;-80
2021/07/14 07:09:19;;;;;;;16.83;10.05;;;;;;;;;;5096530;28;20413;-80
2021/07/14 07:11:45;;;;;;;18.38;11.40;;;;;;;;;;5098806;28;20055;-82
2021/07/14 07:14:11;;;;;;;17.35;9.98;;;;;;;;;;5082064;28;20048;-80
2021/07/14 07:16:38;;;;;;;17.67;10.38;;;;;;;;;;5100089;28;20078;-80
2021/07/14 07:19:05;;;;;;;19.95;11.13;;;;;;;;;;5100210;28;20103;-80
2021/07/14 07:21:31;;;;;;;22.02;10.25;;;;;;;;;;5100094;28;20350;-80
2021/07/14 07:23:57;;;;;;;22.73;12.23;;;;;;;;;;5100142;28;20024;-81
2021/07/14 07:26:24;;;;;;;36.67;12.63;;;;;;;;;;5099033;28;20122;-80
2021/07/14 07:28:57;;;;;;;25.40;8.43;;;;;;;;;;5099999;28;20364;-79
2021/07/14 07:31:24;;;;;;;33.47;8.02;;;;;;;;;;5099798;28;20024;-79
2021/07/14 07:33:50;;;;;;;19.20;8.38;;;;;;;;;;5099517;28;20028;-79
2021/07/14 07:36:16;;;;;;;25.27;8.35;;;;;;;;;;5099809;28;20027;-79
2021/07/14 07:38:42;;;;;;;29.27;8.27;;;;;;;;;;5099588;28;20035;-79
2021/07/14 07:41:08;;;;;;;11.45;7.00;;;;;;;;;;5098675;28;20109;-79
2021/07/14 07:43:34;;;;;;;19.30;6.82;;;;;;;;;;5099530;28;20032;-79
2021/07/14 07:46:01;;;;;;;20.35;7.25;;;;;;;;;;5099564;28;20035;-82
2021/07/14 07:48:27;;;;;;;19.60;7.25;;;;;;;;;;5098583;28;20114;-83
2021/07/14 07:50:53;;;;;;;15.07;7.55;;;;;;;;;;5099684;28;20027;-83
2021/07/14 07:53:20;;;;;;;13.57;6.50;;;;;;;;;;5098553;28;20087;-83
2021/07/14 07:55:46;;;;;;;19.80;6.90;;;;;;;;;;5099655;28;20304;-82
2021/07/14 07:58:12;;;;;;;21.13;7.70;;;;;;;;;;5099465;28;20103;-82
2021/07/14 08:00:39;;;;;;;18.58;7.30;;;;;;;;;;5099102;28;20031;-82
2021/07/14 08:03:05;;;;;;;13.77;7.95;;;;;;;;;;5099265;28;20407;-81
2021/07/14 08:05:31;;;;;;;20.20;7.78;;;;;;;;;;5099504;28;20111;-82
2021/07/14 08:07:57;;;;;;;22.92;8.80;;;;;;;;;;5099202;28;20016;-81
2021/07/14 08:10:23;;;;;;;21.67;7.28;;;;;;;;;;5099363;28;20062;-82
2021/07/14 08:12:49;;;;;;;22.33;7.10;;;;;;;;;;5098171;28;20075;-83
2021/07/14 08:15:16;;;;;;;39.45;9.05;;;;;;;;;;5097943;28;20089;-82
2021/07/14 08:17:42;;;;;;;14.80;8.07;;;;;;;;;;5099078;28;20036;-81
2021/07/14 08:20:09;;;;;;;15.95;7.85;;;;;;;;;;5097983;28;20059;-82
2021/07/14 08:22:36;;;;;;;28.73;8.00;;;;;;;;;;5098861;28;20035;-82
2021/07/14 08:25:03;;;;;;;16.58;8.38;;;;;;;;;;5098609;28;20119;-82
2021/07/14 08:27:29;;;;;;;23.20;7.93;;;;;;;;;;5099077;28;20020;-82
2021/07/14 08:29:59;;;;;;;30.80;9.13;;;;;;;;;;5097854;28;20039;-81
2021/07/14 08:32:26;;;;;;;26.05;7.85;;;;;;;;;;5098727;28;20027;-82
2021/07/14 08:34:52;;;;;;;15.63;7.50;;;;;;;;;;5098543;28;20310;-82
2021/07/14 08:37:18;;;;;;;19.90;7.90;;;;;;;;;;5097988;28;20393;-81
2021/07/14 08:39:44;;;;;;;23.02;8.23;;;;;;;;;;5098635;28;20028;-80
2021/07/14 08:42:11;;;;;;;22.58;8.18;;;;;;;;;;5098702;28;20031;-80
2021/07/14 08:44:37;;;;;;;23.35;8.48;;;;;;;;;;5098497;28;20078;-80
2021/07/14 08:47:03;;;;;;;22.00;8.20;;;;;;;;;;5098306;28;20069;-80
2021/07/14 08:49:29;;;;;;;21.95;8.60;;;;;;;;;;5098277;28;20016;-80
2021/07/14 08:51:57;;;;;;;25.90;7.90;;;;;;;;;;5098549;28;20123;-81
2021/07/14 08:54:23;;;;;;;46.67;8.63;;;;;;;;;;5097264;28;20119;-81
2021/07/14 08:56:50;;;;;;;43.08;9.20;;;;;;;;;;5098219;28;20036;-81
2021/07/14 08:59:17;;;;;;;20.45;7.97;;;;;;;;;;5098222;28;20078;-80
2021/07/14 09:01:45;;;;;;;15.32;7.60;;;;;;;;;;5097046;28;20028;-80
2021/07/14 09:04:11;;;;;;;14.48;7.00;;;;;;;;;;5096968;28;20020;-81
2021/07/14 09:06:37;;;;;;;17.95;7.65;;;;;;;;;;5097348;28;20024;-80
2021/07/14 09:09:04;;;;;;;23.08;8.50;;;;;;;;;;5097966;28;20106;-81
2021/07/14 09:11:30;;;;;;;19.27;11.75;;;;;;;;;;5097995;28;20020;-81
2021/07/14 09:13:56;;;;;;;23.80;10.60;;;;;;;;;;5097519;28;20079;-81
2021/07/14 09:16:40;;;;;;;14.27;8.80;;;;;;;;;;5097918;28;20028;-81
2021/07/14 09:19:12;;;;;;;18.48;8.20;;;;;;;;;;5096664;28;20023;-81
2021/07/14 09:21:45;;;;;;;15.35;7.80;;;;;;;;;;5096842;28;20101;-80
2021/07/14 09:24:23;;;;;;;13.23;8.48;;;;;;;;;;5097431;28;20024;-81
2021/07/14 09:26:49;;;;;;;35.13;8.55;;;;;;;;;;5097526;28;20059;-81
2021/07/14 09:29:15;;;;;;;20.55;7.93;;;;;;;;;;5097413;28;20027;-79
2021/07/14 09:31:45;;;;;;;30.48;8.63;;;;;;;;;;5097754;28;20020;-80
2021/07/14 09:34:27;;;;;;;25.20;8.48;;;;;;;;;;5097147;28;20024;-80
2021/07/14 09:37:11;;;;;;;23.13;8.60;;;;;;;;;;5097667;28;20028;-80
2021/07/14 09:39:38;;;;;;;35.10;8.27;;;;;;;;;;5097314;28;20036;-80
2021/07/14 09:42:04;;;;;;;23.45;8.57;;;;;;;;;;5097618;28;20043;-80
2021/07/14 09:44:30;;;;;;;41.10;8.52;;;;;;;;;;5097566;28;20088;-80
2021/07/14 09:47:16;;;;;;;15.95;7.28;;;;;;;;;;5097379;28;20094;-80
2021/07/14 09:49:43;;;;;;;16.42;7.85;;;;;;;;;;5097287;28;20061;-79
2021/07/14 09:52:10;;;;;;;16.48;8.07;;;;;;;;;;5097262;28;20030;-80
2021/07/14 09:54:36;;;;;;;13.50;7.40;;;;;;;;;;5097213;28;20329;-80
2021/07/14 09:57:31;;;;;;;25.90;7.72;;;;;;;;;;5096202;28;20035;-80
2021/07/14 09:59:57;;;;;;;15.05;7.72;;;;;;;;;;5038336;28;20037;-79
2021/07/14 10:02:23;;;;;;;29.35;9.05;;;;;;;;;;5055117;28;20029;-80
2021/07/14 10:04:50;;;;;;;18.00;7.47;;;;;;;;;;5054943;28;20041;-80
2021/07/14 10:07:18;;;;;;;16.27;8.32;;;;;;;;;;5055036;28;20044;-80
2021/07/14 10:09:45;;;;;;;33.70;9.75;;;;;;;;;;5054904;28;20040;-79
2021/07/14 10:12:30;;;;;;;25.00;8.32;;;;;;;;;;5055018;28;20062;-79
2021/07/14 10:14:58;;;;;;;16.10;8.15;;;;;;;;;;5054804;28;20073;-79
2021/07/14 10:17:44;;;;;;;33.72;8.90;;;;;;;;;;5054904;28;20115;-79
2021/07/14 10:20:25;;;;;;;17.77;8.40;;;;;;;;;;5054940;28;20183;-79
2021/07/14 10:22:59;;;;;;;22.85;8.38;;;;;;;;;;5054857;28;20502;-79
2021/07/14 10:25:25;;;;;;;11.35;8.38;;;;;;;;;;5054761;28;20025;-79
2021/07/14 10:27:52;;;;;;;14.65;8.23;;;;;;;;;;5054747;28;20021;-79
2021/07/14 10:30:19;;;;;;;14.35;8.15;;;;;;;;;;5054862;28;20025;-79
2021/07/14 10:32:45;;;;;;;13.23;7.47;;;;;;;;;;5054928;28;20040;-79
2021/07/14 10:35:14;;;;;;;10.35;7.40;;;;;;;;;;5056084;28;20025;-79
2021/07/14 10:37:41;;;;;;;14.45;7.35;;;;;;;;;;5096935;28;20047;-79
2021/07/14 10:40:08;;;;;;;16.75;7.97;;;;;;;;;;5097406;28;20035;-80
2021/07/14 10:42:35;;;;;;;15.27;7.40;;;;;;;;;;5096711;28;20058;-79
2021/07/14 10:45:03;;;;;;;16.15;7.90;;;;;;;;;;5095595;28;20020;-79
2021/07/14 10:47:30;;;;;;;12.32;7.47;;;;;;;;;;5100325;28;20016;-79
2021/07/14 10:49:56;;;;;;;11.23;7.43;;;;;;;;;;5099584;28;20021;-79
2021/07/14 10:52:23;;;;;;;11.10;8.10;;;;;;;;;;5100574;28;20115;-78
2021/07/14 10:54:51;;;;;;;14.98;7.97;;;;;;;;;;5099744;28;20552;-78
2021/07/14 10:57:17;;;;;;;13.55;7.85;;;;;;;;;;5100652;28;20056;-79
2021/07/14 10:59:45;;;;;;;9.93;8.02;;;;;;;;;;5100428;28;20324;-79
2021/07/14 11:02:15;;;;;;;14.18;8.35;;;;;;;;;;5100602;28;20042;-78
2021/07/14 11:04:42;;;;;;;17.05;8.90;;;;;;;;;;5100307;28;20028;-79
2021/07/14 11:07:09;;;;;;;21.05;8.07;;;;;;;;;;5100520;28;20053;-79
2021/07/14 11:09:40;;;;;;;12.93;7.65;;;;;;;;;;5100296;28;20398;-79
2021/07/14 11:12:07;;;;;;;13.85;8.02;;;;;;;;;;5100267;28;20024;-78
2021/07/14 11:14:47;;;;;;;10.73;7.22;;;;;;;;;;5099910;28;20058;-81
2021/07/14 11:17:13;;;;;;;14.77;8.00;;;;;;;;;;5099886;28;20020;-79
2021/07/14 11:19:42;;;;;;;9.35;8.00;;;;;;;;;;5100201;28;20074;-79
2021/07/14 11:22:09;;;;;;;15.32;8.23;;;;;;;;;;5099254;28;20107;-79
2021/07/14 11:24:46;;;;;;;17.48;8.07;;;;;;;;;;5099950;28;20020;-79
2021/07/14 11:27:28;;;;;;;15.60;8.48;;;;;;;;;;5100172;28;20099;-79
2021/07/14 11:30:17;;;;;;;26.23;8.68;;;;;;;;;;5100227;28;20016;-79
2021/07/14 11:32:43;;;;;;;25.92;8.60;;;;;;;;;;5099750;28;20031;-79
2021/07/14 11:35:14;;;;;;;27.73;8.35;;;;;;;;;;5099982;28;20024;-79
2021/07/14 11:37:42;;;;;;;34.42;8.90;;;;;;;;;;5099727;28;20028;-79
2021/07/14 11:40:28;;;;;;;16.65;7.65;;;;;;;;;;5099854;28;20349;-79
2021/07/14 11:42:57;;;;;;;17.25;7.70;;;;;;;;;;5057372;28;20037;-78
2021/07/14 11:45:26;;;;;;;10.65;7.57;;;;;;;;;;5057334;28;20040;-79
2021/07/14 11:48:08;;;;;;;13.57;7.72;;;;;;;;;;5057355;28;20072;-79
2021/07/14 11:50:45;;;;;;;14.40;8.13;;;;;;;;;;5057389;28;20025;-79
2021/07/14 11:53:36;;;;;;;13.48;7.13;;;;;;;;;;5057215;28;20032;-79
2021/07/14 11:56:03;;;;;;;12.60;7.45;;;;;;;;;;5057317;28;20020;-79
2021/07/14 11:58:48;;;;;;;14.15;7.55;;;;;;;;;;5056945;28;20029;-78
2021/07/14 12:01:20;;;;;;;15.43;7.90;;;;;;;;;;5040619;28;20025;-79
2021/07/14 12:04:16;;;;;;;11.98;7.70;;;;;;;;;;5040360;28;20344;-78
2021/07/14 12:06:46;;;;;;;14.88;7.70;;;;;;;;;;4997727;28;20131;-79
2021/07/14 12:09:17;;;;;;;17.02;7.88;;;;;;;;;;4997783;28;20301;-79
2021/07/14 12:11:43;;;;;;;18.63;7.95;;;;;;;;;;4997797;28;20037;-79
2021/07/14 12:14:12;;;;;;;17.05;8.52;;;;;;;;;;4997413;28;20152;-79
2021/07/14 12:16:38;;;;;;;14.65;7.43;;;;;;;;;;4997040;28;20038;-78
2021/07/14 12:19:05;;;;;;;18.45;7.55;;;;;;;;;;5005451;28;20095;-78
2021/07/14 12:21:34;;;;;;;17.02;7.63;;;;;;;;;;5056784;28;20032;-79
2021/07/14 12:24:00;;;;;;;13.63;7.25;;;;;;;;;;5056788;28;20071;-79
2021/07/14 12:26:27;;;;;;;17.02;8.02;;;;;;;;;;5056816;28;20502;-79
2021/07/14 12:28:53;;;;;;;17.15;8.07;;;;;;;;;;5056625;28;20029;-78
2021/07/14 12:31:19;;;;;;;16.67;7.95;;;;;;;;;;5056711;28;20426;-78
2021/07/14 12:33:50;;;;;;;17.67;8.15;;;;;;;;;;5056552;28;20029;-78
2021/07/14 12:36:17;;;;;;;14.52;7.00;;;;;;;;;;5056530;28;20044;-79
2021/07/14 12:38:43;;;;;;;12.73;6.70;;;;;;;;;;5056512;28;20025;-78
2021/07/14 12:41:12;;;;;;;16.48;8.18;;;;;;;;;;5056396;28;20497;-78
2021/07/14 12:43:38;;;;;;;23.52;7.90;;;;;;;;;;5082496;28;20040;-79
2021/07/14 12:46:04;;;;;;;18.10;7.57;;;;;;;;;;5098146;28;20134;-79
2021/07/14 12:48:31;;;;;;;29.25;8.60;;;;;;;;;;5098410;28;20414;-78
2021/07/14 12:50:57;;;;;;;11.73;6.68;;;;;;;;;;5098313;28;20349;-80
2021/07/14 12:53:24;;;;;;;15.30;7.03;;;;;;;;;;5098531;28;20027;-80
2021/07/14 12:55:52;;;;;;;12.68;7.30;;;;;;;;;;5098146;28;20024;-80
2021/07/14 12:58:23;;;;;;;17.35;7.47;;;;;;;;;;5097243;28;20020;-80
2021/07/14 13:00:51;;;;;;;17.50;6.70;;;;;;;;;;5098205;28;20018;-80
2021/07/14 13:03:22;;;;;;;24.98;7.28;;;;;;;;;;5097342;28;20417;-80
2021/07/14 13:05:49;;;;;;;12.68;7.00;;;;;;;;;;5097994;28;20436;-80
2021/07/14 13:08:22;;;;;;;18.95;7.07;;;;;;;;;;5098015;28;20044;-80
2021/07/14 13:10:53;;;;;;;16.48;7.03;;;;;;;;;;5098100;28;20036;-80
2021/07/14 13:13:19;;;;;;;14.23;7.20;;;;;;;;;;5097744;28;20052;-80
2021/07/14 13:15:51;;;;;;;18.85;8.10;;;;;;;;;;5097911;28;20020;-80
2021/07/14 13:18:18;;;;;;;18.63;8.07;;;;;;;;;;5097976;28;20028;-81
2021/07/14 13:20:44;;;;;;;14.25;6.95;;;;;;;;;;5097749;28;20107;-80
2021/07/14 13:23:11;;;;;;;19.30;7.45;;;;;;;;;;5097633;28;20032;-80
2021/07/14 13:25:43;;;;;;;11.82;7.22;;;;;;;;;;5097766;28;20020;-80
2021/07/14 13:28:21;;;;;;;13.30;7.50;;;;;;;;;;5096699;28;20027;-80
2021/07/14 13:30:53;;;;;;;15.55;6.38;;;;;;;;;;5097964;28;20029;-80
2021/07/14 13:33:20;;;;;;;17.08;6.60;;;;;;;;;;5097834;28;20020;-80
2021/07/14 13:35:48;;;;;;;14.10;6.78;;;;;;;;;;5097774;28;20020;-80
2021/07/14 13:38:33;;;;;;;16.92;6.93;;;;;;;;;;5097682;28;20028;-79
2021/07/14 13:41:02;;;;;;;17.95;7.43;;;;;;;;;;5097428;28;20344;-79
2021/07/14 13:43:45;;;;;;;17.85;6.82;;;;;;;;;;5097246;28;20410;-79
2021/07/14 13:46:19;;;;;;;14.77;6.63;;;;;;;;;;5097457;28;20421;-79
2021/07/14 13:48:55;;;;;;;11.18;6.55;;;;;;;;;;5097453;28;20295;-78
2021/07/14 13:51:35;;;;;;;14.57;6.43;;;;;;;;;;5097540;28;20097;-79
2021/07/14 13:54:19;;;;;;;14.33;6.07;;;;;;;;;;5097497;28;20020;-79
2021/07/14 13:56:46;;;;;;;12.60;7.05;;;;;;;;;;5096254;28;20042;-78
2021/07/14 13:59:39;;;;;;;11.85;6.47;;;;;;;;;;5097258;28;20058;-79
2021/07/14 14:02:09;;;;;;;11.82;6.55;;;;;;;;;;5095539;28;20032;-79
2021/07/14 14:04:44;;;;;;;12.82;5.75;;;;;;;;;;5097177;28;20035;-79
2021/07/14 14:07:19;;;;;;;16.25;6.15;;;;;;;;;;5097253;28;20463;-78
2021/07/14 14:10:00;;;;;;;12.27;5.68;;;;;;;;;;5096407;28;20039;-78
2021/07/14 14:12:39;;;;;;;17.35;6.55;;;;;;;;;;5096811;28;20024;-78
2021/07/14 14:15:25;;;;;;;13.00;6.25;;;;;;;;;;5096891;28;20449;-78
2021/07/14 14:17:53;;;;;;;12.93;6.90;;;;;;;;;;5096984;28;20402;-78
2021/07/14 14:20:26;;;;;;;13.90;6.28;;;;;;;;;;5097900;28;20093;-79
2021/07/14 14:22:52;;;;;;;11.07;6.20;;;;;;;;;;5100625;28;20040;-79
2021/07/14 14:25:23;;;;;;;18.25;6.70;;;;;;;;;;5100305;28;20036;-79
2021/07/14 14:27:55;;;;;;;11.60;6.32;;;;;;;;;;5101388;28;20115;-78
2021/07/14 14:30:22;;;;;;;13.20;6.28;;;;;;;;;;5100979;28;20032;-78
2021/07/14 14:32:52;;;;;;;10.77;5.80;;;;;;;;;;5100018;28;20020;-78
2021/07/14 14:35:19;;;;;;;13.38;6.70;;;;;;;;;;5100926;28;20031;-79
2021/07/14 14:37:45;;;;;;;11.80;6.65;;;;;;;;;;5100785;28;20069;-78
2021/07/14 14:40:12;;;;;;;13.45;6.35;;;;;;;;;;5100920;28;20073;-79
2021/07/14 14:42:38;;;;;;;14.77;6.25;;;;;;;;;;5101008;28;20032;-78
2021/07/14 14:45:05;;;;;;;12.18;6.20;;;;;;;;;;5099931;28;20039;-78
2021/07/14 14:47:31;;;;;;;14.05;7.15;;;;;;;;;;5100598;28;20505;-79
2021/07/14 14:49:57;;;;;;;9.63;7.03;;;;;;;;;;5100688;28;20398;-79